Time;durP1;ratioP1;P1;durP2;ratioP2;P2;SDS_P1;SDS_P2;PMS_P1;PMS_P2;Temp;Humidity;BMP_temperature;BMP_pressure;BME280_temperature;BME280_humidity;BME280_pressure;Samples;Min_cycle;Max_cycle;Signal;HPM_P1;HPM_P2
2022/11/29 00:05:07;;;;;;;5.20;3.80;;;;;;;;;;10332903;28;20558;-80
2022/11/29 00:10:14;;;;;;;4.60;3.65;;;;;;;;;;10340455;28;20613;-81
2022/11/29 00:15:20;;;;;;;5.13;3.53;;;;;;;;;;10328903;28;20042;-80
2022/11/29 00:20:25;;;;;;;3.97;3.17;;;;;;;;;;10323167;28;20076;-82
2022/11/29 00:25:28;;;;;;;4.45;3.13;;;;;;;;;;10331733;28;20045;-83
2022/11/29 00:30:31;;;;;;;6.50;3.85;;;;;;;;;;10346588;28;20049;-83
2022/11/29 00:35:38;;;;;;;4.00;2.95;;;;;;;;;;10362126;28;20060;-82
2022/11/29 00:40:42;;;;;;;4.13;3.20;;;;;;;;;;10343202;28;20046;-82
2022/11/29 00:45:47;;;;;;;3.28;2.97;;;;;;;;;;10344553;28;20056;-83
2022/11/29 00:50:52;;;;;;;3.03;2.70;;;;;;;;;;10324308;28;20525;-83
2022/11/29 00:55:56;;;;;;;3.25;2.85;;;;;;;;;;10353452;28;20056;-83
2022/11/29 01:01:02;;;;;;;4.00;3.28;;;;;;;;;;10342285;28;20046;-83
2022/11/29 01:06:09;;;;;;;4.43;3.20;;;;;;;;;;10348854;28;20050;-82
2022/11/29 01:11:14;;;;;;;5.07;3.63;;;;;;;;;;10367883;28;20061;-83
2022/11/29 01:16:18;;;;;;;4.68;3.38;;;;;;;;;;10364393;28;20044;-83
2022/11/29 01:21:25;;;;;;;3.88;3.45;;;;;;;;;;10378285;28;20449;-82
2022/11/29 01:26:31;;;;;;;5.13;3.60;;;;;;;;;;10345815;28;20046;-82
2022/11/29 01:31:35;;;;;;;4.10;3.33;;;;;;;;;;10347246;28;20068;-83
2022/11/29 01:36:40;;;;;;;3.40;3.08;;;;;;;;;;10343634;28;20363;-82
2022/11/29 01:41:43;;;;;;;3.60;2.92;;;;;;;;;;10353124;28;20049;-82
2022/11/29 01:46:48;;;;;;;4.05;2.92;;;;;;;;;;10352229;28;20048;-82
2022/11/29 01:51:57;;;;;;;3.90;2.85;;;;;;;;;;10351632;28;20056;-83
2022/11/29 01:57:05;;;;;;;4.13;3.25;;;;;;;;;;10342794;28;20104;-82
2022/11/29 02:02:13;;;;;;;4.07;3.13;;;;;;;;;;10357093;28;20050;-83
2022/11/29 02:07:18;;;;;;;4.13;3.25;;;;;;;;;;10337094;28;20049;-83
2022/11/29 02:12:33;;;;;;;5.47;3.35;;;;;;;;;;10336331;28;20541;-82
2022/11/29 02:17:47;;;;;;;3.80;2.85;;;;;;;;;;10341753;28;20529;-83
2022/11/29 02:22:58;;;;;;;3.53;2.95;;;;;;;;;;10351930;28;20046;-81
2022/11/29 02:28:39;;;;;;;4.38;3.20;;;;;;;;;;10321345;28;20050;-81
2022/11/29 02:34:07;;;;;;;4.68;3.35;;;;;;;;;;10331123;28;20045;-81
2022/11/29 02:39:38;;;;;;;4.00;3.30;;;;;;;;;;10327315;28;20045;-81
2022/11/29 02:44:55;;;;;;;4.35;3.38;;;;;;;;;;10332036;28;20065;-80
2022/11/29 02:50:36;;;;;;;4.40;3.50;;;;;;;;;;10318440;28;20050;-81
2022/11/29 02:55:46;;;;;;;4.70;3.38;;;;;;;;;;10295313;28;20120;-81
2022/11/29 03:00:57;;;;;;;4.18;3.22;;;;;;;;;;10350151;28;20041;-82
2022/11/29 03:06:13;;;;;;;4.78;3.13;;;;;;;;;;10327467;28;20046;-82
2022/11/29 03:11:28;;;;;;;2.67;2.40;;;;;;;;;;10332509;28;20053;-81
2022/11/29 03:16:42;;;;;;;4.60;3.28;;;;;;;;;;10332488;28;20317;-82
2022/11/29 03:21:53;;;;;;;4.43;3.33;;;;;;;;;;10349692;28;20562;-82
2022/11/29 03:27:02;;;;;;;4.10;2.95;;;;;;;;;;10324013;28;20104;-82
2022/11/29 03:32:10;;;;;;;4.53;3.42;;;;;;;;;;10328522;28;20133;-83
2022/11/29 03:37:18;;;;;;;3.15;2.47;;;;;;;;;;10327619;28;20129;-81
2022/11/29 03:42:25;;;;;;;4.25;3.22;;;;;;;;;;10328770;28;20052;-81
2022/11/29 03:47:33;;;;;;;4.20;3.25;;;;;;;;;;10345331;28;20506;-81
2022/11/29 03:52:46;;;;;;;4.65;3.28;;;;;;;;;;10328706;28;20054;-82
2022/11/29 03:58:03;;;;;;;5.15;3.17;;;;;;;;;;10322704;28;20050;-83
2022/11/29 04:03:31;;;;;;;3.83;3.00;;;;;;;;;;10321948;28;20533;-84
2022/11/29 04:08:56;;;;;;;5.32;3.60;;;;;;;;;;10338874;28;20058;-83
2022/11/29 04:14:23;;;;;;;5.03;3.17;;;;;;;;;;10333945;28;20034;-83
2022/11/29 04:20:00;;;;;;;4.38;2.83;;;;;;;;;;10319948;28;20227;-82
2022/11/29 04:25:37;;;;;;;5.60;3.95;;;;;;;;;;10335969;28;20045;-81
2022/11/29 04:30:53;;;;;;;5.00;3.33;;;;;;;;;;10336051;28;20049;-81
2022/11/29 04:36:23;;;;;;;6.17;4.00;;;;;;;;;;10342833;28;20053;-81
2022/11/29 04:41:46;;;;;;;5.10;3.50;;;;;;;;;;10334183;28;20649;-83
2022/11/29 04:47:12;;;;;;;4.80;3.50;;;;;;;;;;10339945;28;20050;-81
2022/11/29 04:52:27;;;;;;;5.28;3.88;;;;;;;;;;10327022;28;20050;-81
2022/11/29 04:57:38;;;;;;;4.82;3.63;;;;;;;;;;10338369;28;20192;-81
2022/11/29 05:02:51;;;;;;;6.38;3.42;;;;;;;;;;10341255;28;20076;-81
2022/11/29 05:08:06;;;;;;;6.32;3.70;;;;;;;;;;10339499;28;20060;-81
2022/11/29 05:13:18;;;;;;;6.25;3.78;;;;;;;;;;10327314;28;20050;-81
2022/11/29 05:18:30;;;;;;;5.35;3.88;;;;;;;;;;10338285;28;20046;-83
2022/11/29 05:23:47;;;;;;;5.78;3.78;;;;;;;;;;10333409;28;20049;-85
2022/11/29 05:28:59;;;;;;;7.65;4.95;;;;;;;;;;10321449;28;20053;-84
2022/11/29 05:34:38;;;;;;;9.63;5.35;;;;;;;;;;10345568;28;20076;-84
2022/11/29 05:39:54;;;;;;;9.77;5.93;;;;;;;;;;10316743;28;20124;-84
2022/11/29 05:45:04;;;;;;;11.25;6.68;;;;;;;;;;10337223;28;20045;-84
2022/11/29 05:50:14;;;;;;;11.02;5.88;;;;;;;;;;10328609;28;20042;-84
2022/11/29 05:55:26;;;;;;;9.27;5.45;;;;;;;;;;10326424;28;20045;-85
2022/11/29 06:00:41;;;;;;;9.95;6.35;;;;;;;;;;10326924;28;20045;-84
2022/11/29 06:05:49;;;;;;;7.28;5.10;;;;;;;;;;10328242;28;20041;-83
2022/11/29 06:11:00;;;;;;;8.65;5.53;;;;;;;;;;10335701;28;20060;-84
2022/11/29 06:16:38;;;;;;;8.32;5.28;;;;;;;;;;10329962;28;20058;-84
2022/11/29 06:21:50;;;;;;;6.85;4.22;;;;;;;;;;10327565;28;20532;-84
2022/11/29 06:27:25;;;;;;;7.20;4.47;;;;;;;;;;10320237;28;20042;-83
2022/11/29 06:32:35;;;;;;;7.72;4.82;;;;;;;;;;10345698;28;20249;-83
2022/11/29 06:37:40;;;;;;;7.30;4.72;;;;;;;;;;10326938;28;20158;-84
2022/11/29 06:42:47;;;;;;;7.13;4.45;;;;;;;;;;10328316;28;20474;-84
2022/11/29 06:47:57;;;;;;;6.88;4.30;;;;;;;;;;10318469;28;20057;-83
2022/11/29 06:53:10;;;;;;;6.53;4.00;;;;;;;;;;10325768;28;20066;-84
2022/11/29 06:58:26;;;;;;;8.10;4.25;;;;;;;;;;10329856;28;20048;-84
2022/11/29 07:03:46;;;;;;;4.75;3.17;;;;;;;;;;10363502;28;20121;-84
2022/11/29 07:08:55;;;;;;;5.18;3.55;;;;;;;;;;10326956;28;20505;-84
2022/11/29 07:13:59;;;;;;;4.68;3.55;;;;;;;;;;10324489;28;20060;-84
2022/11/29 07:19:30;;;;;;;6.45;3.85;;;;;;;;;;10342073;28;20080;-84
2022/11/29 07:24:55;;;;;;;4.82;3.78;;;;;;;;;;10325109;28;20052;-84
2022/11/29 07:30:09;;;;;;;4.35;3.28;;;;;;;;;;10321137;28;20052;-85
2022/11/29 07:35:18;;;;;;;4.85;3.65;;;;;;;;;;10358587;28;20049;-85
2022/11/29 07:40:27;;;;;;;5.72;3.03;;;;;;;;;;10348523;28;20041;-84
2022/11/29 07:45:35;;;;;;;4.50;3.22;;;;;;;;;;10339452;28;20441;-84
2022/11/29 07:50:40;;;;;;;5.28;3.45;;;;;;;;;;10363405;28;20048;-84
2022/11/29 07:55:44;;;;;;;5.65;3.65;;;;;;;;;;10330987;28;20552;-83
2022/11/29 08:00:47;;;;;;;6.20;3.80;;;;;;;;;;10330131;28;20409;-84
2022/11/29 08:05:52;;;;;;;5.75;3.53;;;;;;;;;;10338240;28;20050;-84
2022/11/29 08:10:55;;;;;;;5.45;3.45;;;;;;;;;;10323687;28;20046;-84
2022/11/29 08:15:58;;;;;;;6.35;3.78;;;;;;;;;;10339132;28;20046;-85
2022/11/29 08:21:07;;;;;;;4.90;3.10;;;;;;;;;;10330007;28;20054;-85
2022/11/29 08:26:10;;;;;;;5.38;3.42;;;;;;;;;;10328912;28;20761;-84
2022/11/29 08:31:14;;;;;;;6.65;4.00;;;;;;;;;;10328390;28;20528;-83
2022/11/29 08:36:20;;;;;;;5.13;3.28;;;;;;;;;;10324036;28;20605;-83
2022/11/29 08:41:23;;;;;;;5.97;3.38;;;;;;;;;;10326068;28;20045;-84
2022/11/29 08:47:34;;;;;;;4.10;2.90;;;;;;;;;;10326887;28;20049;-84
2022/11/29 08:53:39;;;;;;;3.58;2.55;;;;;;;;;;10341023;28;20092;-84
2022/11/29 08:57:16;;;;;;;3.80;2.42;;;;;;;;;;10326782;28;20071;-84
2022/11/29 09:02:39;;;;;;;4.88;2.70;;;;;;;;;;10324921;28;20057;-85
2022/11/29 09:07:45;;;;;;;5.60;3.00;;;;;;;;;;10325466;28;20145;-84
2022/11/29 09:12:50;;;;;;;4.67;3.03;;;;;;;;;;10334269;28;20050;-84
2022/11/29 09:17:53;;;;;;;6.22;3.30;;;;;;;;;;10324912;28;20045;-84
2022/11/29 09:22:58;;;;;;;9.25;4.55;;;;;;;;;;10329836;28;20124;-84
2022/11/29 09:28:02;;;;;;;7.15;3.75;;;;;;;;;;10331922;28;20053;-84
2022/11/29 09:33:05;;;;;;;7.57;4.38;;;;;;;;;;10356198;28;20056;-84
2022/11/29 09:38:11;;;;;;;7.53;3.40;;;;;;;;;;10331195;28;20521;-84
2022/11/29 09:43:23;;;;;;;5.65;3.22;;;;;;;;;;10330790;28;20068;-83
2022/11/29 09:48:41;;;;;;;8.73;4.55;;;;;;;;;;10337749;28;20092;-84
2022/11/29 09:54:00;;;;;;;6.85;4.35;;;;;;;;;;10329378;28;20042;-85
2022/11/29 09:59:08;;;;;;;4.93;3.00;;;;;;;;;;10349880;28;20046;-84
2022/11/29 10:04:18;;;;;;;6.07;3.45;;;;;;;;;;10344180;28;20731;-85
2022/11/29 10:09:28;;;;;;;9.77;3.50;;;;;;;;;;10338935;28;20064;-84
2022/11/29 10:14:40;;;;;;;13.75;5.10;;;;;;;;;;10351676;28;20061;-85
2022/11/29 10:19:47;;;;;;;11.63;4.38;;;;;;;;;;10343363;28;20034;-84
2022/11/29 10:24:57;;;;;;;6.30;3.33;;;;;;;;;;10342234;28;20077;-85
2022/11/29 10:30:01;;;;;;;4.22;2.47;;;;;;;;;;10343615;28;20133;-85
2022/11/29 10:35:14;;;;;;;3.28;2.03;;;;;;;;;;10340429;28;20052;-85
2022/11/29 10:40:25;;;;;;;3.13;2.40;;;;;;;;;;10347152;28;20045;-85
2022/11/29 10:45:30;;;;;;;3.55;2.45;;;;;;;;;;10355876;28;20052;-85
2022/11/29 10:50:35;;;;;;;3.25;2.63;;;;;;;;;;10372239;28;20034;-85
2022/11/29 10:55:44;;;;;;;4.50;2.80;;;;;;;;;;10357880;28;20053;-85
2022/11/29 11:00:54;;;;;;;5.05;3.35;;;;;;;;;;10345066;28;20038;-84
2022/11/29 11:06:11;;;;;;;6.65;3.25;;;;;;;;;;10357164;28;20050;-85
2022/11/29 11:11:25;;;;;;;7.38;4.38;;;;;;;;;;10348387;28;20486;-85
2022/11/29 11:16:28;;;;;;;5.82;3.88;;;;;;;;;;10346431;28;20042;-85
2022/11/29 11:21:39;;;;;;;5.47;3.53;;;;;;;;;;10353075;28;20050;-85
2022/11/29 11:26:45;;;;;;;6.15;3.50;;;;;;;;;;10343627;28;20050;-85
2022/11/29 11:31:52;;;;;;;;;;;;;;;;;;10344954;28;20050;-85
2022/11/29 11:37:19;;;;;;;6.88;3.70;;;;;;;;;;10353864;28;20366;-85
2022/11/29 11:42:39;;;;;;;9.50;5.07;;;;;;;;;;10342648;28;20050;-85
2022/11/29 11:47:44;;;;;;;6.22;3.65;;;;;;;;;;10361410;28;20086;-85
2022/11/29 11:52:52;;;;;;;5.15;3.67;;;;;;;;;;10359006;28;20057;-86
2022/11/29 11:58:01;;;;;;;4.72;2.95;;;;;;;;;;10350975;28;20757;-85
2022/11/29 12:03:31;;;;;;;4.60;2.97;;;;;;;;;;10340631;28;20084;-86
2022/11/29 12:08:36;;;;;;;3.55;2.55;;;;;;;;;;10331985;28;20253;-81
2022/11/29 12:13:46;;;;;;;4.15;2.70;;;;;;;;;;10338919;28;20049;-84
2022/11/29 12:18:53;;;;;;;3.17;2.20;;;;;;;;;;10348442;28;20129;-86
2022/11/29 12:23:58;;;;;;;;;;;;;;;;;;10352829;28;20524;-84
2022/11/29 12:29:03;;;;;;;2.80;1.85;;;;;;;;;;10368383;28;19927;-85
2022/11/29 12:34:19;;;;;;;2.50;2.20;;;;;;;;;;10360508;28;20057;-86
2022/11/29 12:39:45;;;;;;;3.08;1.95;;;;;;;;;;10345306;28;20097;-86
2022/11/29 12:45:00;;;;;;;3.33;2.30;;;;;;;;;;10342509;28;20413;-86
2022/11/29 12:50:20;;;;;;;3.77;2.53;;;;;;;;;;10343004;28;20125;-86
2022/11/29 12:55:28;;;;;;;4.05;2.25;;;;;;;;;;10344234;28;20053;-85
2022/11/29 13:00:39;;;;;;;4.38;2.88;;;;;;;;;;10349556;28;20060;-85
2022/11/29 13:05:55;;;;;;;8.55;4.38;;;;;;;;;;10356506;28;20049;-86
2022/11/29 13:11:09;;;;;;;8.45;4.28;;;;;;;;;;10352595;28;20505;-85
2022/11/29 13:16:30;;;;;;;6.22;3.72;;;;;;;;;;10331448;28;20054;-85
2022/11/29 13:21:40;;;;;;;6.93;4.28;;;;;;;;;;10330491;28;20050;-85
2022/11/29 13:26:44;;;;;;;9.85;5.53;;;;;;;;;;10348360;28;20053;-86
2022/11/29 13:31:50;;;;;;;8.45;4.35;;;;;;;;;;10327852;28;20046;-84
2022/11/29 13:37:02;;;;;;;6.35;3.95;;;;;;;;;;10340332;28;20173;-85
2022/11/29 13:42:12;;;;;;;13.43;7.28;;;;;;;;;;10330633;28;20053;-85
2022/11/29 13:47:19;;;;;;;13.63;6.32;;;;;;;;;;10324293;28;20046;-85
2022/11/29 13:52:37;;;;;;;23.95;12.25;;;;;;;;;;10328455;28;20049;-85
2022/11/29 13:57:52;;;;;;;16.70;8.88;;;;;;;;;;10313360;28;20042;-85
2022/11/29 14:03:30;;;;;;;17.23;8.05;;;;;;;;;;10319412;28;20415;-85
2022/11/29 14:08:35;;;;;;;14.20;6.50;;;;;;;;;;10337572;28;20422;-85
2022/11/29 14:14:02;;;;;;;11.07;6.15;;;;;;;;;;10317489;28;20053;-85
2022/11/29 14:19:24;;;;;;;12.82;7.07;;;;;;;;;;10330067;28;20129;-85
2022/11/29 14:24:40;;;;;;;14.57;7.43;;;;;;;;;;10334621;28;20049;-86
2022/11/29 14:29:53;;;;;;;17.88;8.15;;;;;;;;;;10339484;28;20042;-85
2022/11/29 14:35:07;;;;;;;15.10;7.63;;;;;;;;;;10315237;28;20048;-86
2022/11/29 14:40:25;;;;;;;16.23;8.27;;;;;;;;;;10334594;28;20048;-85
2022/11/29 14:45:32;;;;;;;17.85;7.40;;;;;;;;;;10326861;28;20050;-86
2022/11/29 14:50:39;;;;;;;10.82;5.53;;;;;;;;;;10324476;28;20547;-85
2022/11/29 14:55:43;;;;;;;9.65;4.90;;;;;;;;;;10322798;28;20145;-85
2022/11/29 15:01:02;;;;;;;11.52;5.03;;;;;;;;;;10320491;28;20752;-86
2022/11/29 15:06:18;;;;;;;10.95;4.60;;;;;;;;;;10325775;28;20054;-86
2022/11/29 15:11:42;;;;;;;10.70;4.82;;;;;;;;;;10327186;28;20507;-85
2022/11/29 15:17:03;;;;;;;10.48;5.78;;;;;;;;;;10338534;28;20216;-84
2022/11/29 15:22:15;;;;;;;13.55;6.57;;;;;;;;;;10319199;28;20046;-84
2022/11/29 15:27:19;;;;;;;12.23;6.55;;;;;;;;;;10344630;28;20060;-85
2022/11/29 15:32:25;;;;;;;10.27;5.35;;;;;;;;;;10342278;28;20421;-84
2022/11/29 15:37:43;;;;;;;10.00;4.97;;;;;;;;;;10320336;28;20039;-84
2022/11/29 15:42:49;;;;;;;9.75;4.97;;;;;;;;;;10313125;28;20267;-84
2022/11/29 15:47:52;;;;;;;11.18;4.97;;;;;;;;;;10330534;28;20041;-85
2022/11/29 15:53:01;;;;;;;10.02;4.95;;;;;;;;;;10321179;28;20096;-85
2022/11/29 15:58:04;;;;;;;10.65;5.05;;;;;;;;;;10322989;28;20451;-85
2022/11/29 16:03:19;;;;;;;8.88;4.85;;;;;;;;;;10334459;28;20053;-85
2022/11/29 16:08:26;;;;;;;7.78;4.15;;;;;;;;;;10341858;28;20042;-85
2022/11/29 16:13:34;;;;;;;10.30;5.13;;;;;;;;;;10330736;28;20045;-85
2022/11/29 16:18:40;;;;;;;10.35;4.70;;;;;;;;;;10334622;28;20045;-85
2022/11/29 16:23:45;;;;;;;8.20;4.07;;;;;;;;;;10322144;28;20045;-87
2022/11/29 16:28:51;;;;;;;8.45;4.65;;;;;;;;;;10321854;28;20049;-85
2022/11/29 16:33:54;;;;;;;6.82;4.18;;;;;;;;;;10357291;28;20111;-85
2022/11/29 16:39:05;;;;;;;9.10;4.47;;;;;;;;;;10329326;28;20425;-86
2022/11/29 16:44:45;;;;;;;9.93;4.88;;;;;;;;;;10327688;28;20069;-86
2022/11/29 16:50:11;;;;;;;11.85;5.38;;;;;;;;;;10355232;28;20034;-87
2022/11/29 16:55:21;;;;;;;10.85;5.75;;;;;;;;;;10340492;28;20050;-86
2022/11/29 17:00:31;;;;;;;11.70;4.85;;;;;;;;;;10332147;28;20120;-86
2022/11/29 17:05:35;;;;;;;11.00;5.07;;;;;;;;;;10333784;28;20050;-85
2022/11/29 17:10:42;;;;;;;9.18;5.82;;;;;;;;;;10334938;28;20089;-85
2022/11/29 17:15:46;;;;;;;11.18;6.25;;;;;;;;;;10330903;28;20444;-86
2022/11/29 17:20:49;;;;;;;10.02;6.00;;;;;;;;;;10331966;28;20501;-84
2022/11/29 17:26:01;;;;;;;11.43;6.15;;;;;;;;;;10326265;28;20064;-84
2022/11/29 17:31:09;;;;;;;9.82;5.93;;;;;;;;;;10330011;28;20728;-84
2022/11/29 17:36:15;;;;;;;10.18;5.70;;;;;;;;;;10331316;28;20494;-83
2022/11/29 17:41:22;;;;;;;11.55;6.07;;;;;;;;;;10345930;28;20054;-83
2022/11/29 17:46:27;;;;;;;16.75;8.23;;;;;;;;;;10346763;28;20053;-83
2022/11/29 17:51:30;;;;;;;18.70;8.02;;;;;;;;;;10328898;28;20050;-86
2022/11/29 17:56:55;;;;;;;26.45;11.27;;;;;;;;;;10332869;28;20049;-86
2022/11/29 18:02:00;;;;;;;21.70;9.57;;;;;;;;;;10332656;28;20081;-85
2022/11/29 18:07:04;;;;;;;18.83;10.18;;;;;;;;;;10324838;28;20120;-85
2022/11/29 18:12:09;;;;;;;19.50;9.98;;;;;;;;;;10323576;28;20046;-85
2022/11/29 18:17:12;;;;;;;17.38;9.02;;;;;;;;;;10324920;28;20511;-84
2022/11/29 18:22:15;;;;;;;24.35;12.32;;;;;;;;;;10346001;28;20062;-85
2022/11/29 18:27:20;;;;;;;28.95;14.48;;;;;;;;;;10343333;28;20064;-85
2022/11/29 18:32:24;;;;;;;20.63;11.15;;;;;;;;;;10328678;28;20510;-85
2022/11/29 18:37:28;;;;;;;18.30;9.80;;;;;;;;;;10329080;28;20119;-85
2022/11/29 18:42:51;;;;;;;13.98;8.57;;;;;;;;;;10335045;28;20046;-85
2022/11/29 18:47:55;;;;;;;14.65;7.72;;;;;;;;;;10325609;28;20050;-85
2022/11/29 18:52:58;;;;;;;13.27;6.60;;;;;;;;;;10315552;28;20130;-85
2022/11/29 18:58:03;;;;;;;11.57;6.78;;;;;;;;;;10317069;28;20113;-86
2022/11/29 19:03:06;;;;;;;16.40;8.85;;;;;;;;;;10320086;28;20155;-85
2022/11/29 19:08:13;;;;;;;17.73;8.43;;;;;;;;;;10319192;28;20430;-85
2022/11/29 19:13:17;;;;;;;;;;;;;;;;;;10315731;28;20046;-86
2022/11/29 19:18:22;;;;;;;18.88;10.70;;;;;;;;;;10299756;28;19921;-86
2022/11/29 19:23:25;;;;;;;19.13;11.27;;;;;;;;;;10330125;28;20046;-86
2022/11/29 19:28:30;;;;;;;21.42;11.98;;;;;;;;;;10332315;28;20073;-85
2022/11/29 19:33:34;;;;;;;24.38;11.43;;;;;;;;;;10340143;28;20076;-85
2022/11/29 19:38:38;;;;;;;20.63;11.23;;;;;;;;;;10360667;28;20537;-85
2022/11/29 19:43:43;;;;;;;16.23;9.80;;;;;;;;;;10366837;28;20049;-85
2022/11/29 19:48:46;;;;;;;17.13;9.77;;;;;;;;;;10358080;28;20164;-84
2022/11/29 19:53:53;;;;;;;16.48;9.43;;;;;;;;;;10341579;28;20061;-84
2022/11/29 19:58:59;;;;;;;15.15;9.70;;;;;;;;;;10361484;28;20056;-85
2022/11/29 20:04:02;;;;;;;16.95;9.40;;;;;;;;;;10342740;28;20557;-84
2022/11/29 20:09:06;;;;;;;17.25;10.18;;;;;;;;;;10335826;28;20056;-85
2022/11/29 20:14:13;;;;;;;16.35;8.98;;;;;;;;;;10313168;28;20127;-84
2022/11/29 20:19:17;;;;;;;17.73;8.82;;;;;;;;;;10325113;28;20410;-86
2022/11/29 20:24:28;;;;;;;16.52;9.10;;;;;;;;;;10339503;28;20046;-86
2022/11/29 20:29:34;;;;;;;21.60;10.07;;;;;;;;;;10344043;28;20042;-87
2022/11/29 20:34:38;;;;;;;19.90;10.43;;;;;;;;;;10315780;28;20048;-87
2022/11/29 20:39:45;;;;;;;20.08;10.57;;;;;;;;;;10318873;28;20060;-86
2022/11/29 20:44:55;;;;;;;24.40;12.43;;;;;;;;;;10336878;28;20202;-86
2022/11/29 20:49:58;;;;;;;21.38;12.10;;;;;;;;;;10330442;28;20082;-87
2022/11/29 20:55:02;;;;;;;20.25;11.90;;;;;;;;;;10322744;28;20042;-85
2022/11/29 21:00:10;;;;;;;19.60;11.68;;;;;;;;;;10316928;28;20542;-87
2022/11/29 21:05:15;;;;;;;19.48;9.77;;;;;;;;;;10319466;28;20409;-86
2022/11/29 22:08:51;;;;;;;14.77;8.63;;;;;;;;;;12774969;23;20244;-85
2022/11/29 22:19:17;;;;;;;16.27;7.45;;;;;;;;;;10283247;28;20047;-85
2022/11/29 22:24:24;;;;;;;16.00;8.18;;;;;;;;;;10266205;28;20043;-85
2022/11/29 22:29:27;;;;;;;13.93;7.75;;;;;;;;;;10288060;28;20097;-85
2022/11/29 22:34:31;;;;;;;16.30;8.50;;;;;;;;;;10266236;28;20179;-85
2022/11/29 22:39:36;;;;;;;13.48;7.40;;;;;;;;;;10264785;28;20494;-84
2022/11/29 22:44:39;;;;;;;16.27;8.32;;;;;;;;;;10257497;28;20042;-86
2022/11/29 22:49:43;;;;;;;16.15;8.90;;;;;;;;;;10264781;28;20053;-85
2022/11/29 22:54:48;;;;;;;14.63;8.82;;;;;;;;;;10280135;28;20121;-84
2022/11/29 22:59:51;;;;;;;15.30;8.18;;;;;;;;;;10229458;28;20082;-85
2022/11/29 23:11:04;;;;;;;14.63;7.38;;;;;;;;;;10225118;28;20070;-84
2022/11/29 23:16:09;;;;;;;14.05;7.32;;;;;;;;;;10186350;29;20419;-83
2022/11/29 23:21:15;;;;;;;14.63;7.75;;;;;;;;;;10160489;29;20093;-84
2022/11/29 23:26:22;;;;;;;15.02;8.45;;;;;;;;;;10160333;29;20059;-84
2022/11/29 23:31:26;;;;;;;10.18;5.82;;;;;;;;;;10157493;29;20055;-84
2022/11/29 23:36:36;;;;;;;;;;;;;;;;;;10158316;29;20530;-83
2022/11/29 23:41:41;;;;;;;8.70;5.18;;;;;;;;;;10158275;29;20640;-86
2022/11/29 23:46:44;;;;;;;10.32;5.72;;;;;;;;;;10168280;29;20082;-86
2022/11/29 23:51:48;;;;;;;11.18;6.32;;;;;;;;;;10167741;29;20083;-90
2022/11/29 23:56:53;;;;;;;10.50;5.45;;;;;;;;;;10178842;29;20043;-84
